Raunds, United Kingdom
Current Conditions -  °F | °C
As of 11:20 AM on Friday 24 Oct 2014 (Local Time) from EGTC Reporting Station
Scattered Clouds Scattered Clouds  
Wind Chill: 16°   Ceiling: Unl
Heat Index: 16°   Visibility: 6mi
Dew Point: 15°   Wind: 14mph
Humidity: 94%   Direction: 220°SW
Pressure: 29.94"   Gusts: NA
Location:  52.34°N, 0.54°W
Report Text: EGTC 241020Z 22012KT 9999 SCT015 16/15 Q1014
Loading
Personal Weather Stations






























Interactive Weather Map
Tropical Storm Tracking
New forecast layout! Learn more

10-Day Weather Forecast

Advertisements
Track Severe Weather on mobile